ACA782 KLAX-CYYZ
Flight info
| Callsign | ACA782 |
|---|---|
| Flight time | 1h 45m |
| Altitude | 39000 |
| Route | DOTSS2 CLEEE DCT PKE DCT FLG J10 RSK J64 PUB DCT GLD DCT DIYAP DCT JOT DCT SVM DCT QWERI NUBER6 |
| Aircraft | B789/H-SDE1E2E3FGHIJ2J3J4J5M1RWXY/LB1D1 |
Departure
| Time | 2026-05-07 23:16 |
|---|---|
| Airport | Los Angeles International Airport (KLAX) |
Arrival
| Time | 2026-05-08 01:01 |
|---|---|
| Airport | Toronto Pearson International Airport (CYYZ) |
| Time | Latitude | Longitude | Altitude | Speed | Heading |
|---|---|---|---|---|---|
| 2026-05-07 22:47 | 33.94099 | -118.41083 | 100 ft | 0 kts | 83° |
| 2026-05-07 23:03 | 33.94099 | -118.41086 | 100 ft | 1 kts | 83° |
| 2026-05-07 23:03 | 33.94099 | -118.41090 | 100 ft | 1 kts | 83° |
| 2026-05-07 23:03 | 33.94098 | -118.41094 | 102 ft | 1 kts | 83° |
| 2026-05-07 23:04 | 33.94098 | -118.41102 | 102 ft | 1 kts | 83° |
| 2026-05-07 23:04 | 33.94097 | -118.41111 | 102 ft | 1 kts | 83° |
| 2026-05-07 23:04 | 33.94095 | -118.41127 | 100 ft | 3 kts | 83° |
| 2026-05-07 23:04 | 33.94094 | -118.41162 | 100 ft | 5 kts | 104° |
| 2026-05-07 23:05 | 33.94121 | -118.41198 | 99 ft | 5 kts | 167° |
| 2026-05-07 23:05 | 33.94127 | -118.41200 | 101 ft | 0 kts | 171° |
| 2026-05-07 23:07 | 33.94089 | -118.41192 | 99 ft | 11 kts | 171° |
| 2026-05-07 23:07 | 33.93973 | -118.41172 | 102 ft | 22 kts | 175° |
| 2026-05-07 23:07 | 33.93821 | -118.41155 | 106 ft | 20 kts | 163° |
| 2026-05-07 23:08 | 33.93769 | -118.41069 | 108 ft | 10 kts | 85° |
| 2026-05-07 23:08 | 33.93776 | -118.40983 | 107 ft | 11 kts | 84° |
| 2026-05-07 23:08 | 33.93787 | -118.40888 | 107 ft | 12 kts | 82° |
| 2026-05-07 23:08 | 33.93800 | -118.40767 | 108 ft | 19 kts | 83° |
| 2026-05-07 23:09 | 33.93818 | -118.40584 | 108 ft | 25 kts | 83° |
| 2026-05-07 23:09 | 33.93840 | -118.40357 | 109 ft | 28 kts | 85° |
| 2026-05-07 23:09 | 33.93861 | -118.40151 | 110 ft | 24 kts | 84° |
| 2026-05-07 23:09 | 33.93866 | -118.40103 | 110 ft | 5 kts | 81° |
| 2026-05-07 23:10 | 33.93878 | -118.40005 | 110 ft | 18 kts | 82° |
| 2026-05-07 23:10 | 33.93895 | -118.39801 | 109 ft | 26 kts | 80° |
| 2026-05-07 23:10 | 33.93919 | -118.39596 | 108 ft | 24 kts | 84° |
| 2026-05-07 23:10 | 33.93939 | -118.39394 | 107 ft | 25 kts | 82° |
| 2026-05-07 23:11 | 33.93960 | -118.39183 | 107 ft | 26 kts | 84° |
| 2026-05-07 23:11 | 33.93982 | -118.38969 | 107 ft | 26 kts | 82° |
| 2026-05-07 23:11 | 33.94006 | -118.38732 | 108 ft | 32 kts | 85° |
| 2026-05-07 23:11 | 33.94037 | -118.38453 | 108 ft | 34 kts | 84° |
| 2026-05-07 23:12 | 33.94064 | -118.38176 | 109 ft | 25 kts | 82° |
| 2026-05-07 23:12 | 33.94078 | -118.38043 | 108 ft | 6 kts | 88° |
| 2026-05-07 23:12 | 33.94078 | -118.38038 | 108 ft | 0 kts | 90° |
| 2026-05-07 23:13 | 33.94075 | -118.38030 | 108 ft | 2 kts | 112° |
| 2026-05-07 23:13 | 33.94055 | -118.38010 | 109 ft | 6 kts | 153° |
| 2026-05-07 23:13 | 33.94007 | -118.38004 | 112 ft | 1 kts | 201° |
| 2026-05-07 23:14 | 33.93991 | -118.38023 | 111 ft | 7 kts | 234° |
| 2026-05-07 23:14 | 33.93977 | -118.38099 | 115 ft | 0 kts | 263° |
| 2026-05-07 23:15 | 33.93975 | -118.38118 | 115 ft | 7 kts | 263° |
| 2026-05-07 23:15 | 33.93961 | -118.38264 | 113 ft | 38 kts | 263° |
| 2026-05-07 23:15 | 33.93902 | -118.38840 | 110 ft | 101 kts | 263° |
| 2026-05-07 23:15 | 33.93793 | -118.39904 | 128 ft | 153 kts | 263° |
| 2026-05-07 23:16 | 33.93643 | -118.41207 | 672 ft | 159 kts | 259° |
| 2026-05-07 23:16 | 33.93517 | -118.42555 | 1196 ft | 167 kts | 263° |
| 2026-05-07 23:16 | 33.93366 | -118.43989 | 1718 ft | 184 kts | 263° |
| 2026-05-07 23:16 | 33.93172 | -118.45591 | 2074 ft | 202 kts | 258° |
| 2026-05-07 23:17 | 33.92411 | -118.47123 | 2257 ft | 226 kts | 232° |
| 2026-05-07 23:17 | 33.91356 | -118.48621 | 2602 ft | 245 kts | 231° |
| 2026-05-07 23:17 | 33.90191 | -118.50204 | 3126 ft | 257 kts | 229° |
| 2026-05-07 23:17 | 33.89044 | -118.51896 | 3816 ft | 264 kts | 233° |
| 2026-05-07 23:18 | 33.87885 | -118.53632 | 4624 ft | 269 kts | 232° |
| 2026-05-07 23:18 | 33.86547 | -118.55260 | 5184 ft | 283 kts | 215° |
| 2026-05-07 23:18 | 33.84668 | -118.55990 | 5550 ft | 288 kts | 184° |
| 2026-05-07 23:18 | 33.82694 | -118.55672 | 5878 ft | 288 kts | 166° |
| 2026-05-07 23:19 | 33.80756 | -118.55080 | 5996 ft | 293 kts | 165° |
| 2026-05-07 23:19 | 33.78786 | -118.54500 | 5996 ft | 289 kts | 166° |
| 2026-05-07 23:19 | 33.76944 | -118.54019 | 6326 ft | 300 kts | 167° |
| 2026-05-07 23:19 | 33.74907 | -118.53491 | 7044 ft | 298 kts | 166° |
| 2026-05-07 23:20 | 33.72883 | -118.52943 | 7519 ft | 298 kts | 166° |
| 2026-05-07 23:20 | 33.70916 | -118.52206 | 7832 ft | 295 kts | 150° |
| 2026-05-07 23:20 | 33.69412 | -118.50609 | 7990 ft | 290 kts | 122° |
| 2026-05-07 23:20 | 33.68561 | -118.48449 | 8013 ft | 285 kts | 107° |
| 2026-05-07 23:21 | 33.67932 | -118.46198 | 7998 ft | 285 kts | 105° |
| 2026-05-07 23:21 | 33.67331 | -118.43942 | 7986 ft | 283 kts | 106° |
| 2026-05-07 23:21 | 33.66664 | -118.41681 | 8200 ft | 293 kts | 108° |
| 2026-05-07 23:21 | 33.65979 | -118.39451 | 9229 ft | 284 kts | 107° |
| 2026-05-07 23:22 | 33.65316 | -118.37231 | 10086 ft | 283 kts | 106° |
| 2026-05-07 23:22 | 33.64661 | -118.34958 | 10546 ft | 295 kts | 105° |
| 2026-05-07 23:22 | 33.64441 | -118.32465 | 10751 ft | 309 kts | 84° |
| 2026-05-07 23:22 | 33.64514 | -118.29830 | 11109 ft | 324 kts | 88° |
| 2026-05-07 23:23 | 33.64478 | -118.27074 | 11635 ft | 334 kts | 89° |
| 2026-05-07 23:23 | 33.64446 | -118.24276 | 12319 ft | 337 kts | 88° |
| 2026-05-07 23:23 | 33.64457 | -118.21446 | 13004 ft | 341 kts | 87° |
| 2026-05-07 23:23 | 33.64474 | -118.18577 | 13705 ft | 345 kts | 88° |
| 2026-05-07 23:24 | 33.64474 | -118.15678 | 14310 ft | 349 kts | 88° |
| 2026-05-07 23:24 | 33.64466 | -118.12758 | 14932 ft | 352 kts | 88° |
| 2026-05-07 23:24 | 33.64463 | -118.09805 | 15557 ft | 356 kts | 88° |
| 2026-05-07 23:24 | 33.64464 | -118.06859 | 16165 ft | 359 kts | 88° |
| 2026-05-07 23:25 | 33.64462 | -118.03851 | 16782 ft | 362 kts | 88° |
| 2026-05-07 23:25 | 33.64458 | -118.00814 | 17413 ft | 366 kts | 88° |
| 2026-05-07 23:25 | 33.64452 | -117.97752 | 18020 ft | 369 kts | 88° |
| 2026-05-07 23:25 | 33.64448 | -117.94673 | 18586 ft | 372 kts | 87° |
| 2026-05-07 23:26 | 33.64442 | -117.91556 | 19104 ft | 375 kts | 88° |
| 2026-05-07 23:26 | 33.64440 | -117.90498 | 19280 ft | 376 kts | 87° |
| 2026-05-07 23:26 | 33.64436 | -117.88792 | 19560 ft | 378 kts | 87° |
| 2026-05-07 23:27 | 33.64420 | -117.82433 | 20586 ft | 384 kts | 87° |
| 2026-05-07 23:27 | 33.64490 | -117.79271 | 21014 ft | 386 kts | 81° |
| 2026-05-07 23:27 | 33.65082 | -117.76135 | 21480 ft | 386 kts | 73° |
| 2026-05-07 23:28 | 33.65699 | -117.72986 | 21977 ft | 389 kts | 75° |
| 2026-05-07 23:28 | 33.66287 | -117.69805 | 22453 ft | 392 kts | 75° |
| 2026-05-07 23:28 | 33.66893 | -117.66602 | 22922 ft | 395 kts | 74° |
| 2026-05-07 23:28 | 33.67523 | -117.63383 | 23392 ft | 398 kts | 74° |
| 2026-05-07 23:29 | 33.68153 | -117.60139 | 23770 ft | 401 kts | 74° |
| 2026-05-07 23:29 | 33.68777 | -117.56861 | 24173 ft | 404 kts | 75° |
| 2026-05-07 23:29 | 33.69401 | -117.53575 | 24582 ft | 405 kts | 75° |
| 2026-05-07 23:29 | 33.70034 | -117.50266 | 24998 ft | 407 kts | 74° |
| 2026-05-07 23:30 | 33.70671 | -117.46941 | 25381 ft | 410 kts | 75° |
| 2026-05-07 23:30 | 33.71307 | -117.43600 | 25805 ft | 411 kts | 75° |
| 2026-05-07 23:30 | 33.71944 | -117.40245 | 26204 ft | 413 kts | 75° |
| 2026-05-07 23:30 | 33.72584 | -117.36874 | 26578 ft | 415 kts | 75° |
| 2026-05-07 23:31 | 33.73227 | -117.33483 | 26945 ft | 417 kts | 75° |
| 2026-05-07 23:31 | 33.73862 | -117.30126 | 27316 ft | 419 kts | 75° |
| 2026-05-07 23:31 | 33.74509 | -117.26706 | 27682 ft | 421 kts | 75° |
| 2026-05-07 23:31 | 33.75048 | -117.23231 | 27966 ft | 426 kts | 82° |
| 2026-05-07 23:32 | 33.75079 | -117.19650 | 28323 ft | 430 kts | 88° |
| 2026-05-07 23:32 | 33.74998 | -117.16047 | 28696 ft | 432 kts | 88° |
| 2026-05-07 23:32 | 33.74915 | -117.12433 | 29045 ft | 434 kts | 88° |
| 2026-05-07 23:32 | 33.74843 | -117.08795 | 29377 ft | 436 kts | 88° |
| 2026-05-07 23:33 | 33.74774 | -117.05148 | 29710 ft | 438 kts | 88° |
| 2026-05-07 23:33 | 33.74697 | -117.01480 | 30048 ft | 440 kts | 88° |
| 2026-05-07 23:33 | 33.74614 | -116.97796 | 30341 ft | 442 kts | 88° |
| 2026-05-07 23:33 | 33.74534 | -116.94142 | 30618 ft | 444 kts | 88° |
| 2026-05-07 23:34 | 33.74455 | -116.90429 | 30902 ft | 446 kts | 88° |
| 2026-05-07 23:34 | 33.74373 | -116.86706 | 31187 ft | 447 kts | 88° |
| 2026-05-07 23:34 | 33.74287 | -116.82956 | 31472 ft | 449 kts | 88° |
| 2026-05-07 23:34 | 33.74201 | -116.79206 | 31726 ft | 450 kts | 88° |
| 2026-05-07 23:35 | 33.74114 | -116.75442 | 31984 ft | 452 kts | 88° |
| 2026-05-07 23:35 | 33.74026 | -116.71658 | 32132 ft | 454 kts | 88° |
| 2026-05-07 23:35 | 33.73936 | -116.67890 | 32402 ft | 456 kts | 88° |
| 2026-05-07 23:35 | 33.73845 | -116.64081 | 32691 ft | 457 kts | 88° |
| 2026-05-07 23:36 | 33.73751 | -116.60258 | 32975 ft | 459 kts | 88° |
| 2026-05-07 23:36 | 33.73657 | -116.56425 | 33261 ft | 461 kts | 88° |
| 2026-05-07 23:36 | 33.73560 | -116.52569 | 33534 ft | 462 kts | 88° |
| 2026-05-07 23:36 | 33.73462 | -116.48696 | 33808 ft | 464 kts | 88° |
| 2026-05-07 23:37 | 33.73363 | -116.44818 | 34054 ft | 466 kts | 88° |
| 2026-05-07 23:37 | 33.73263 | -116.40977 | 34278 ft | 468 kts | 88° |
| 2026-05-07 23:37 | 33.73160 | -116.37060 | 34529 ft | 469 kts | 88° |
| 2026-05-07 23:37 | 33.73056 | -116.33147 | 34809 ft | 469 kts | 88° |
| 2026-05-07 23:38 | 33.72950 | -116.29223 | 35054 ft | 470 kts | 88° |
| 2026-05-07 23:38 | 33.72844 | -116.25307 | 35334 ft | 470 kts | 88° |
| 2026-05-07 23:38 | 33.72736 | -116.21385 | 35610 ft | 470 kts | 88° |
| 2026-05-07 23:38 | 33.72627 | -116.17465 | 35881 ft | 470 kts | 88° |
| 2026-05-07 23:39 | 33.72516 | -116.13540 | 36157 ft | 470 kts | 88° |
| 2026-05-07 23:39 | 33.72453 | -116.09625 | 36387 ft | 468 kts | 84° |
| 2026-05-07 23:39 | 33.72872 | -116.05817 | 36609 ft | 464 kts | 75° |
| 2026-05-07 23:39 | 33.73799 | -116.02072 | 36869 ft | 461 kts | 68° |
| 2026-05-07 23:40 | 33.74816 | -115.98471 | 37111 ft | 462 kts | 69° |
| 2026-05-07 23:40 | 33.75819 | -115.94853 | 37388 ft | 462 kts | 69° |
| 2026-05-07 23:40 | 33.76828 | -115.91183 | 37644 ft | 462 kts | 69° |
| 2026-05-07 23:40 | 33.77842 | -115.87523 | 37895 ft | 462 kts | 69° |
| 2026-05-07 23:41 | 33.78843 | -115.83929 | 38125 ft | 463 kts | 69° |
| 2026-05-07 23:41 | 33.79880 | -115.80183 | 38383 ft | 463 kts | 69° |
| 2026-05-07 23:41 | 33.80889 | -115.76515 | 38600 ft | 463 kts | 69° |
| 2026-05-07 23:41 | 33.81902 | -115.72837 | 38761 ft | 464 kts | 69° |
| 2026-05-07 23:42 | 33.83945 | -115.65427 | 38851 ft | 469 kts | 69° |
| 2026-05-07 23:42 | 33.85962 | -115.58067 | 38841 ft | 465 kts | 69° |
| 2026-05-07 23:43 | 33.87990 | -115.50667 | 38849 ft | 465 kts | 69° |
| 2026-05-07 23:43 | 33.90006 | -115.43276 | 38845 ft | 465 kts | 69° |
| 2026-05-07 23:44 | 33.92021 | -115.35878 | 38832 ft | 466 kts | 69° |
| 2026-05-07 23:44 | 33.94034 | -115.28465 | 38999 ft | 466 kts | 69° |
| 2026-05-07 23:45 | 33.95038 | -115.24761 | 39208 ft | 465 kts | 69° |
| 2026-05-07 23:45 | 33.96041 | -115.21057 | 39387 ft | 466 kts | 69° |
| 2026-05-07 23:45 | 33.97043 | -115.17348 | 39549 ft | 466 kts | 69° |
| 2026-05-07 23:45 | 33.98035 | -115.13675 | 39711 ft | 467 kts | 69° |
| 2026-05-07 23:46 | 33.99038 | -115.09954 | 39867 ft | 468 kts | 69° |
| 2026-05-07 23:46 | 34.00043 | -115.06221 | 40043 ft | 468 kts | 69° |
| 2026-05-07 23:46 | 34.01047 | -115.02485 | 40216 ft | 469 kts | 70° |
| 2026-05-07 23:46 | 34.02049 | -114.98753 | 40332 ft | 469 kts | 70° |
| 2026-05-07 23:47 | 34.03053 | -114.95008 | 40493 ft | 470 kts | 70° |
| 2026-05-07 23:47 | 34.04057 | -114.91258 | 40638 ft | 470 kts | 70° |
| 2026-05-07 23:47 | 34.05060 | -114.87507 | 40780 ft | 471 kts | 70° |
| 2026-05-07 23:47 | 34.06068 | -114.83731 | 40845 ft | 473 kts | 70° |
| 2026-05-07 23:48 | 34.08072 | -114.76209 | 40846 ft | 473 kts | 70° |
| 2026-05-07 23:48 | 34.10079 | -114.68678 | 40831 ft | 470 kts | 69° |
| 2026-05-07 23:49 | 34.12654 | -114.61466 | 40854 ft | 468 kts | 64° |
| 2026-05-07 23:49 | 34.15269 | -114.54261 | 40832 ft | 468 kts | 64° |
| 2026-05-07 23:50 | 34.17871 | -114.47064 | 40836 ft | 468 kts | 64° |
| 2026-05-07 23:50 | 34.22335 | -114.34704 | 40846 ft | 469 kts | 64° |
| 2026-05-07 23:51 | 34.32588 | -114.06142 | 40694 ft | 472 kts | 64° |
| 2026-05-07 23:51 | 34.42891 | -113.77181 | 40743 ft | 469 kts | 65° |
| 2026-05-07 23:51 | 34.53045 | -113.48365 | 40907 ft | 463 kts | 65° |
| 2026-05-07 23:51 | 34.63055 | -113.19707 | 40940 ft | 460 kts | 65° |
| 2026-05-07 23:52 | 34.82879 | -112.62156 | 41076 ft | 463 kts | 65° |
| 2026-05-07 23:52 | 35.02425 | -112.04350 | 41291 ft | 458 kts | 66° |
| 2026-05-07 23:53 | 35.24331 | -111.47460 | 41313 ft | 461 kts | 57° |
| 2026-05-07 23:53 | 35.37066 | -111.19972 | 41008 ft | 466 kts | 60° |
| 2026-05-07 23:53 | 35.49758 | -110.92244 | 40946 ft | 470 kts | 60° |
| 2026-05-07 23:54 | 35.75380 | -110.36485 | 40962 ft | 471 kts | 59° |
| 2026-05-07 23:54 | 36.00737 | -109.80077 | 41161 ft | 466 kts | 59° |
| 2026-05-07 23:55 | 36.25782 | -109.23574 | 41148 ft | 471 kts | 59° |
| 2026-05-07 23:55 | 36.38383 | -108.94728 | 41018 ft | 475 kts | 60° |
| 2026-05-07 23:55 | 36.50961 | -108.65708 | 40871 ft | 481 kts | 60° |
| 2026-05-07 23:56 | 36.75978 | -108.07257 | 40979 ft | 483 kts | 59° |
| 2026-05-07 23:56 | 36.96070 | -107.61888 | 41167 ft | 480 kts | 59° |
| 2026-05-07 23:57 | 37.19225 | -107.08776 | 41231 ft | 487 kts | 59° |
| 2026-05-07 23:57 | 37.44942 | -106.48680 | 41050 ft | 491 kts | 59° |
| 2026-05-07 23:58 | 37.70644 | -105.87501 | 41149 ft | 493 kts | 59° |
| 2026-05-07 23:58 | 37.83438 | -105.56608 | 41015 ft | 494 kts | 59° |
| 2026-05-07 23:58 | 37.96176 | -105.25545 | 41077 ft | 498 kts | 60° |
| 2026-05-07 23:59 | 38.21681 | -104.62378 | 41009 ft | 502 kts | 60° |
| 2026-05-07 23:59 | 38.47665 | -103.99064 | 40881 ft | 504 kts | 59° |
| 2026-05-08 00:00 | 38.73579 | -103.35295 | 40812 ft | 514 kts | 59° |
| 2026-05-08 00:00 | 38.99599 | -102.70197 | 40837 ft | 520 kts | 59° |
| 2026-05-08 00:01 | 39.25646 | -102.03432 | 40883 ft | 525 kts | 60° |
| 2026-05-08 00:01 | 39.46988 | -101.33238 | 40764 ft | 531 kts | 69° |
| 2026-05-08 00:02 | 39.64147 | -100.60508 | 40737 ft | 537 kts | 69° |
| 2026-05-08 00:02 | 39.81080 | -99.86422 | 40796 ft | 541 kts | 71° |
| 2026-05-08 00:03 | 39.97232 | -99.11488 | 40772 ft | 540 kts | 72° |
| 2026-05-08 00:03 | 40.05283 | -98.73850 | 40892 ft | 539 kts | 71° |
| 2026-05-08 00:03 | 40.13220 | -98.36069 | 40854 ft | 540 kts | 72° |
| 2026-05-08 00:04 | 40.28527 | -97.60276 | 40928 ft | 542 kts | 73° |
| 2026-05-08 00:04 | 40.43531 | -96.83732 | 41069 ft | 539 kts | 73° |
| 2026-05-08 00:05 | 40.57963 | -96.06863 | 41059 ft | 542 kts | 74° |
| 2026-05-08 00:05 | 40.65079 | -95.67809 | 40916 ft | 543 kts | 74° |
| 2026-05-08 00:05 | 40.72033 | -95.29006 | 40951 ft | 542 kts | 74° |
| 2026-05-08 00:06 | 40.85443 | -94.51545 | 40761 ft | 548 kts | 75° |
| 2026-05-08 00:06 | 40.98403 | -93.72881 | 40795 ft | 551 kts | 78° |
| 2026-05-08 00:07 | 41.08238 | -92.92858 | 40767 ft | 557 kts | 80° |
| 2026-05-08 00:07 | 41.17730 | -92.12527 | 40979 ft | 554 kts | 77° |
| 2026-05-08 00:08 | 41.26742 | -91.31022 | 41096 ft | 556 kts | 81° |
| 2026-05-08 00:08 | 41.35052 | -90.49762 | 41032 ft | 555 kts | 79° |
| 2026-05-08 00:09 | 41.39145 | -90.08672 | 40909 ft | 559 kts | 79° |
| 2026-05-08 00:09 | 41.43046 | -89.67443 | 40904 ft | 564 kts | 81° |
| 2026-05-08 00:09 | 41.50245 | -88.84466 | 40833 ft | 566 kts | 81° |
| 2026-05-08 00:10 | 41.55226 | -88.26235 | 40854 ft | 558 kts | 76° |
| 2026-05-08 00:10 | 41.66268 | -87.74516 | 40913 ft | 556 kts | 68° |
| 2026-05-08 00:11 | 41.73968 | -87.35441 | 40929 ft | 558 kts | 71° |
| 2026-05-08 00:11 | 41.81820 | -86.95160 | 40961 ft | 559 kts | 72° |
| 2026-05-08 00:12 | 41.89473 | -86.54963 | 40960 ft | 559 kts | 73° |
| 2026-05-08 00:12 | 41.97068 | -86.14175 | 40954 ft | 559 kts | 73° |
| 2026-05-08 00:13 | 42.04414 | -85.73863 | 40945 ft | 558 kts | 73° |
| 2026-05-08 00:13 | 42.07767 | -85.55172 | 40946 ft | 557 kts | 73° |
| 2026-05-08 00:14 | 42.09568 | -85.45054 | 40946 ft | 557 kts | 74° |
| 2026-05-08 00:14 | 42.11361 | -85.34923 | 40956 ft | 556 kts | 74° |
| 2026-05-08 00:15 | 42.12844 | -85.26501 | 40960 ft | 556 kts | 74° |
| 2026-05-08 00:15 | 42.14908 | -85.14717 | 40953 ft | 556 kts | 74° |
| 2026-05-08 00:16 | 42.16674 | -85.04573 | 40954 ft | 556 kts | 74° |
| 2026-05-08 00:16 | 42.18134 | -84.96144 | 40955 ft | 556 kts | 74° |
| 2026-05-08 00:17 | 42.19882 | -84.85998 | 40955 ft | 556 kts | 75° |
| 2026-05-08 00:17 | 42.21625 | -84.75824 | 40944 ft | 557 kts | 75° |
| 2026-05-08 00:18 | 42.23357 | -84.65656 | 40961 ft | 556 kts | 75° |
| 2026-05-08 00:18 | 42.25070 | -84.55543 | 40954 ft | 556 kts | 75° |
| 2026-05-08 00:19 | 42.26771 | -84.45439 | 40955 ft | 556 kts | 75° |
| 2026-05-08 00:19 | 42.28477 | -84.35254 | 40949 ft | 557 kts | 75° |
| 2026-05-08 00:20 | 42.30174 | -84.25057 | 40941 ft | 557 kts | 75° |
| 2026-05-08 00:20 | 42.31864 | -84.14839 | 40947 ft | 557 kts | 75° |
| 2026-05-08 00:21 | 42.33538 | -84.04669 | 40952 ft | 558 kts | 75° |
| 2026-05-08 00:21 | 42.35201 | -83.94495 | 40956 ft | 558 kts | 76° |
| 2026-05-08 00:22 | 42.36851 | -83.84348 | 40960 ft | 558 kts | 76° |
| 2026-05-08 00:22 | 42.38507 | -83.74096 | 40955 ft | 558 kts | 76° |
| 2026-05-08 00:23 | 42.40156 | -83.63829 | 40952 ft | 558 kts | 76° |
| 2026-05-08 00:23 | 42.42050 | -83.53687 | 40950 ft | 555 kts | 71° |
| 2026-05-08 00:24 | 42.44181 | -83.43725 | 40954 ft | 556 kts | 72° |
| 2026-05-08 00:24 | 42.46266 | -83.33640 | 40944 ft | 556 kts | 72° |
| 2026-05-08 00:25 | 42.48381 | -83.23564 | 40945 ft | 556 kts | 72° |
| 2026-05-08 00:25 | 42.50463 | -83.13474 | 40942 ft | 556 kts | 72° |
| 2026-05-08 00:26 | 42.52550 | -83.03381 | 40945 ft | 555 kts | 72° |
| 2026-05-08 00:26 | 42.54617 | -82.93299 | 40908 ft | 555 kts | 72° |
| 2026-05-08 00:27 | 42.56664 | -82.83278 | 40911 ft | 555 kts | 72° |
| 2026-05-08 00:27 | 42.57688 | -82.78250 | 40659 ft | 551 kts | 72° |
| 2026-05-08 00:27 | 42.58706 | -82.73230 | 39951 ft | 553 kts | 72° |
| 2026-05-08 00:28 | 42.59721 | -82.68211 | 39358 ft | 551 kts | 72° |
| 2026-05-08 00:28 | 42.60735 | -82.63192 | 38772 ft | 550 kts | 72° |
| 2026-05-08 00:28 | 42.61744 | -82.58185 | 38088 ft | 547 kts | 72° |
| 2026-05-08 00:28 | 42.62734 | -82.53252 | 37444 ft | 539 kts | 72° |
| 2026-05-08 00:29 | 42.63709 | -82.48393 | 36848 ft | 536 kts | 72° |
| 2026-05-08 00:29 | 42.64685 | -82.43518 | 36296 ft | 533 kts | 72° |
| 2026-05-08 00:29 | 42.65640 | -82.38729 | 35745 ft | 530 kts | 72° |
| 2026-05-08 00:29 | 42.66598 | -82.33914 | 35200 ft | 527 kts | 72° |
| 2026-05-08 00:30 | 42.67576 | -82.29138 | 34652 ft | 522 kts | 69° |
| 2026-05-08 00:30 | 42.69015 | -82.24677 | 34411 ft | 505 kts | 56° |
| 2026-05-08 00:30 | 42.70916 | -82.20799 | 34393 ft | 484 kts | 47° |
| 2026-05-08 00:30 | 42.72917 | -82.17151 | 34393 ft | 482 kts | 47° |
| 2026-05-08 00:31 | 42.76978 | -82.09649 | 33564 ft | 507 kts | 49° |
| 2026-05-08 00:31 | 42.79031 | -82.05809 | 32581 ft | 503 kts | 49° |
| 2026-05-08 00:31 | 42.80903 | -82.01927 | 31828 ft | 482 kts | 56° |
| 2026-05-08 00:32 | 42.82488 | -81.98037 | 31335 ft | 463 kts | 56° |
| 2026-05-08 00:32 | 42.84098 | -81.94167 | 31047 ft | 471 kts | 55° |
| 2026-05-08 00:32 | 42.87296 | -81.86457 | 30468 ft | 465 kts | 56° |
| 2026-05-08 00:33 | 42.88872 | -81.82611 | 29914 ft | 464 kts | 56° |
| 2026-05-08 00:33 | 42.90445 | -81.78785 | 29391 ft | 459 kts | 56° |
| 2026-05-08 00:33 | 42.91996 | -81.75021 | 28853 ft | 449 kts | 56° |
| 2026-05-08 00:33 | 42.93497 | -81.71367 | 27765 ft | 443 kts | 56° |
| 2026-05-08 00:34 | 42.94969 | -81.67776 | 27100 ft | 436 kts | 56° |
| 2026-05-08 00:34 | 42.96428 | -81.64209 | 26839 ft | 426 kts | 56° |
| 2026-05-08 00:34 | 42.97863 | -81.60701 | 26556 ft | 419 kts | 56° |
| 2026-05-08 00:34 | 42.99274 | -81.57252 | 26244 ft | 415 kts | 56° |
| 2026-05-08 00:35 | 43.00676 | -81.53822 | 25938 ft | 412 kts | 56° |
| 2026-05-08 00:35 | 43.02068 | -81.50405 | 25621 ft | 411 kts | 56° |
| 2026-05-08 00:35 | 43.03452 | -81.47005 | 25315 ft | 408 kts | 56° |
| 2026-05-08 00:35 | 43.04827 | -81.43621 | 24989 ft | 406 kts | 56° |
| 2026-05-08 00:36 | 43.06193 | -81.40261 | 24682 ft | 403 kts | 57° |
| 2026-05-08 00:36 | 43.07525 | -81.36971 | 24366 ft | 399 kts | 57° |
| 2026-05-08 00:36 | 43.08833 | -81.33636 | 24052 ft | 396 kts | 58° |
| 2026-05-08 00:36 | 43.10110 | -81.30313 | 23729 ft | 392 kts | 58° |
| 2026-05-08 00:37 | 43.11389 | -81.27033 | 23392 ft | 389 kts | 58° |
| 2026-05-08 00:37 | 43.12665 | -81.23797 | 23033 ft | 385 kts | 58° |
| 2026-05-08 00:37 | 43.13927 | -81.20577 | 22679 ft | 382 kts | 58° |
| 2026-05-08 00:38 | 43.16410 | -81.14190 | 22034 ft | 378 kts | 58° |
| 2026-05-08 00:38 | 43.17645 | -81.11020 | 21707 ft | 376 kts | 58° |
| 2026-05-08 00:38 | 43.18851 | -81.07924 | 21414 ft | 374 kts | 58° |
| 2026-05-08 00:38 | 43.20071 | -81.04779 | 21111 ft | 373 kts | 58° |
| 2026-05-08 00:39 | 43.21284 | -81.01651 | 20811 ft | 371 kts | 58° |
| 2026-05-08 00:39 | 43.22490 | -80.98537 | 20523 ft | 369 kts | 58° |
| 2026-05-08 00:39 | 43.23690 | -80.95440 | 20216 ft | 367 kts | 58° |
| 2026-05-08 00:39 | 43.24885 | -80.92349 | 19925 ft | 366 kts | 58° |
| 2026-05-08 00:40 | 43.26070 | -80.89278 | 19636 ft | 364 kts | 59° |
| 2026-05-08 00:40 | 43.27252 | -80.86214 | 19346 ft | 363 kts | 59° |
| 2026-05-08 00:40 | 43.28412 | -80.83204 | 19064 ft | 361 kts | 59° |
| 2026-05-08 00:40 | 43.29584 | -80.80160 | 18778 ft | 359 kts | 59° |
| 2026-05-08 00:41 | 43.30748 | -80.77132 | 18476 ft | 358 kts | 59° |
| 2026-05-08 00:41 | 43.31906 | -80.74117 | 18188 ft | 357 kts | 59° |
| 2026-05-08 00:41 | 43.33061 | -80.71109 | 17865 ft | 355 kts | 59° |
| 2026-05-08 00:41 | 43.34197 | -80.68146 | 17549 ft | 353 kts | 59° |
| 2026-05-08 00:42 | 43.35337 | -80.65167 | 17241 ft | 351 kts | 59° |
| 2026-05-08 00:42 | 43.36471 | -80.62204 | 16939 ft | 350 kts | 59° |
| 2026-05-08 00:42 | 43.37601 | -80.59248 | 16651 ft | 348 kts | 59° |
| 2026-05-08 00:42 | 43.38708 | -80.56346 | 16370 ft | 347 kts | 59° |
| 2026-05-08 00:43 | 43.39825 | -80.53416 | 16086 ft | 346 kts | 59° |
| 2026-05-08 00:43 | 43.40938 | -80.50495 | 15803 ft | 344 kts | 59° |
| 2026-05-08 00:43 | 43.42037 | -80.47606 | 15526 ft | 343 kts | 59° |
| 2026-05-08 00:43 | 43.42761 | -80.45702 | 15353 ft | 342 kts | 59° |
| 2026-05-08 00:44 | 43.43861 | -80.42808 | 15073 ft | 341 kts | 59° |
| 2026-05-08 00:44 | 43.44957 | -80.39919 | 14800 ft | 340 kts | 60° |
| 2026-05-08 00:44 | 43.45997 | -80.37012 | 14520 ft | 339 kts | 66° |
| 2026-05-08 00:44 | 43.46808 | -80.33959 | 14268 ft | 338 kts | 67° |
| 2026-05-08 00:45 | 43.47668 | -80.30944 | 14014 ft | 338 kts | 66° |
| 2026-05-08 00:45 | 43.48529 | -80.27942 | 13757 ft | 337 kts | 66° |
| 2026-05-08 00:45 | 43.49364 | -80.24937 | 13472 ft | 336 kts | 68° |
| 2026-05-08 00:45 | 43.50182 | -80.21954 | 13182 ft | 328 kts | 67° |
| 2026-05-08 00:46 | 43.50976 | -80.19089 | 12899 ft | 321 kts | 67° |
| 2026-05-08 00:46 | 43.51759 | -80.16240 | 12629 ft | 317 kts | 68° |
| 2026-05-08 00:46 | 43.52512 | -80.13389 | 12372 ft | 316 kts | 68° |
| 2026-05-08 00:46 | 43.53262 | -80.10549 | 12110 ft | 315 kts | 68° |
| 2026-05-08 00:47 | 43.54018 | -80.07724 | 11868 ft | 314 kts | 68° |
| 2026-05-08 00:47 | 43.54774 | -80.04902 | 11626 ft | 314 kts | 68° |
| 2026-05-08 00:47 | 43.55522 | -80.02095 | 11376 ft | 313 kts | 68° |
| 2026-05-08 00:47 | 43.56267 | -79.99285 | 11121 ft | 312 kts | 68° |
| 2026-05-08 00:48 | 43.57009 | -79.96492 | 11015 ft | 308 kts | 69° |
| 2026-05-08 00:48 | 43.57710 | -79.93852 | 11016 ft | 308 kts | 68° |
| 2026-05-08 00:48 | 43.58462 | -79.91021 | 11019 ft | 311 kts | 69° |
| 2026-05-08 00:48 | 43.59187 | -79.88253 | 11019 ft | 311 kts | 70° |
| 2026-05-08 00:49 | 43.59503 | -79.85312 | 10978 ft | 311 kts | 91° |
| 2026-05-08 00:49 | 43.59477 | -79.82327 | 11007 ft | 314 kts | 90° |
| 2026-05-08 00:49 | 43.59510 | -79.79391 | 10737 ft | 294 kts | 89° |
| 2026-05-08 00:49 | 43.59551 | -79.76589 | 9765 ft | 293 kts | 89° |
| 2026-05-08 00:50 | 43.59574 | -79.73817 | 8923 ft | 284 kts | 89° |
| 2026-05-08 00:50 | 43.59589 | -79.71157 | 8358 ft | 269 kts | 89° |
| 2026-05-08 00:50 | 43.59606 | -79.68639 | 8081 ft | 257 kts | 89° |
| 2026-05-08 00:50 | 43.59624 | -79.66216 | 8003 ft | 248 kts | 89° |
| 2026-05-08 00:51 | 43.59641 | -79.63834 | 8014 ft | 250 kts | 89° |
| 2026-05-08 00:51 | 43.59653 | -79.61433 | 8009 ft | 251 kts | 90° |
| 2026-05-08 00:51 | 43.59655 | -79.59021 | 8010 ft | 251 kts | 90° |
| 2026-05-08 00:51 | 43.59657 | -79.56642 | 8009 ft | 252 kts | 90° |
| 2026-05-08 00:52 | 43.59926 | -79.54278 | 7908 ft | 251 kts | 66° |
| 2026-05-08 00:52 | 43.60934 | -79.52410 | 7527 ft | 241 kts | 44° |
| 2026-05-08 00:52 | 43.62115 | -79.50764 | 7026 ft | 241 kts | 41° |
| 2026-05-08 00:52 | 43.63291 | -79.49119 | 6579 ft | 239 kts | 43° |
| 2026-05-08 00:53 | 43.64427 | -79.47459 | 6147 ft | 237 kts | 44° |
| 2026-05-08 00:53 | 43.65542 | -79.45814 | 5677 ft | 235 kts | 44° |
| 2026-05-08 00:53 | 43.66657 | -79.44186 | 5226 ft | 232 kts | 44° |
| 2026-05-08 00:53 | 43.67763 | -79.42575 | 4778 ft | 230 kts | 44° |
| 2026-05-08 00:54 | 43.68840 | -79.41004 | 4348 ft | 227 kts | 44° |
| 2026-05-08 00:54 | 43.69911 | -79.39439 | 4079 ft | 222 kts | 44° |
| 2026-05-08 00:54 | 43.70965 | -79.37898 | 4004 ft | 220 kts | 45° |
| 2026-05-08 00:54 | 43.72027 | -79.36345 | 4004 ft | 224 kts | 45° |
| 2026-05-08 00:55 | 43.73109 | -79.34797 | 4003 ft | 223 kts | 42° |
| 2026-05-08 00:55 | 43.74497 | -79.33967 | 3881 ft | 219 kts | 3° |
| 2026-05-08 00:55 | 43.75891 | -79.34538 | 3832 ft | 203 kts | 327° |
| 2026-05-08 00:55 | 43.76946 | -79.35684 | 3946 ft | 188 kts | 319° |
| 2026-05-08 00:56 | 43.77967 | -79.36811 | 3997 ft | 189 kts | 320° |
| 2026-05-08 00:56 | 43.78976 | -79.37962 | 3981 ft | 186 kts | 315° |
| 2026-05-08 00:56 | 43.79446 | -79.39571 | 3836 ft | 185 kts | 272° |
| 2026-05-08 00:56 | 43.79225 | -79.41276 | 3941 ft | 181 kts | 258° |
| 2026-05-08 00:57 | 43.78773 | -79.42931 | 3964 ft | 189 kts | 246° |
| 2026-05-08 00:57 | 43.78012 | -79.44442 | 3670 ft | 191 kts | 230° |
| 2026-05-08 00:57 | 43.77106 | -79.45761 | 3425 ft | 189 kts | 228° |
| 2026-05-08 00:57 | 43.76203 | -79.47075 | 3174 ft | 188 kts | 228° |
| 2026-05-08 00:58 | 43.75304 | -79.48383 | 2902 ft | 187 kts | 228° |
| 2026-05-08 00:58 | 43.74409 | -79.49686 | 2635 ft | 186 kts | 228° |
| 2026-05-08 00:58 | 43.73520 | -79.50979 | 2398 ft | 183 kts | 228° |
| 2026-05-08 00:58 | 43.72675 | -79.52214 | 2143 ft | 170 kts | 229° |
| 2026-05-08 00:59 | 43.71888 | -79.53369 | 1904 ft | 162 kts | 229° |
| 2026-05-08 00:59 | 43.71127 | -79.54476 | 1699 ft | 160 kts | 229° |
| 2026-05-08 00:59 | 43.70383 | -79.55555 | 1460 ft | 151 kts | 229° |
| 2026-05-08 00:59 | 43.69673 | -79.56592 | 1238 ft | 150 kts | 228° |
| 2026-05-08 01:00 | 43.68954 | -79.57639 | 1025 ft | 150 kts | 227° |
| 2026-05-08 01:00 | 43.68240 | -79.58679 | 821 ft | 148 kts | 227° |
| 2026-05-08 01:00 | 43.67534 | -79.59710 | 636 ft | 148 kts | 227° |
| 2026-05-08 01:00 | 43.66872 | -79.60693 | 569 ft | 125 kts | 220° |
| 2026-05-08 01:01 | 43.66388 | -79.61381 | 567 ft | 76 kts | 227° |
| 2026-05-08 01:01 | 43.66110 | -79.61785 | 572 ft | 41 kts | 227° |
| 2026-05-08 01:01 | 43.66007 | -79.62020 | 573 ft | 23 kts | 251° |
| 2026-05-08 01:01 | 43.65980 | -79.62133 | 567 ft | 8 kts | 263° |
| 2026-05-08 01:02 | 43.65997 | -79.62195 | 567 ft | 0 kts | 308° |
| 2026-05-08 01:03 | 43.66018 | -79.62230 | 572 ft | 12 kts | 315° |
| 2026-05-08 01:03 | 43.66116 | -79.62358 | 573 ft | 25 kts | 316° |
| 2026-05-08 01:03 | 43.66231 | -79.62495 | 568 ft | 15 kts | 336° |
| 2026-05-08 01:03 | 43.66295 | -79.62475 | 573 ft | 9 kts | 35° |
| 2026-05-08 01:04 | 43.66379 | -79.62373 | 570 ft | 28 kts | 41° |
| 2026-05-08 01:04 | 43.66523 | -79.62192 | 573 ft | 26 kts | 42° |
| 2026-05-08 01:04 | 43.66658 | -79.62021 | 578 ft | 26 kts | 43° |
| 2026-05-08 01:04 | 43.66791 | -79.61855 | 579 ft | 22 kts | 43° |
| 2026-05-08 01:05 | 43.66905 | -79.61710 | 579 ft | 23 kts | 42° |
| 2026-05-08 01:05 | 43.67024 | -79.61560 | 578 ft | 23 kts | 43° |
| 2026-05-08 01:05 | 43.67145 | -79.61406 | 576 ft | 24 kts | 43° |
| 2026-05-08 01:05 | 43.67242 | -79.61246 | 572 ft | 12 kts | 53° |
| 2026-05-08 01:06 | 43.67300 | -79.61139 | 572 ft | 18 kts | 52° |
| 2026-05-08 01:06 | 43.67378 | -79.61094 | 571 ft | 11 kts | 351° |
| 2026-05-08 01:06 | 43.67454 | -79.61106 | 571 ft | 10 kts | 5° |
| 2026-05-08 01:06 | 43.67473 | -79.61089 | 571 ft | 4 kts | 54° |
| 2026-05-08 01:07 | 43.67502 | -79.61011 | 570 ft | 13 kts | 66° |
| 2026-05-08 01:07 | 43.67554 | -79.60895 | 574 ft | 15 kts | 41° |
| 2026-05-08 01:07 | 43.67590 | -79.60879 | 573 ft | 1 kts | 345° |
| 2026-05-08 01:07 | 43.67615 | -79.60907 | 573 ft | 8 kts | 312° |
| 2026-05-08 01:08 | 43.67632 | -79.60940 | 574 ft | 2 kts | 305° |
| 2026-05-08 01:08 | 43.67642 | -79.60960 | 572 ft | 0 kts | 305° |